Hovedside
METAR-TAF:

METAR-TAF

Lufthavner :

Vadsø lufthavn

Vadsø, Norge

breddegrad: 70-04N, lengdegrad: 029-51E, høyde over havet: 3 m

Gjeldene værobservasjon

Denne rapporten ble laget for 4 timer og 46 minutter siden, klokken 12:50 UTC
Vind 35 kt fra Vest med vindkast opp mot 46 kt
Temperatur 10°C
Luftfuktighet 53%
Trykk 1016 hPa
Sikt 10 km eller mer
Få skyer i en høyde av 4000 ft
Brutte skyer i en høyde av 5300 ft
lette regnbyger

METAR: ENVD 261250Z 26035G46KT 9999 -SHRA FEW040 BKN053 10/01 Q1016

Tid: 19:36 (17:36 UTC)


TAF: fraværende

Værobservasjoner og værvarsel for over 4000 flyplasser (METAR- og TAF-rapporter).

Tilgjengelige stasjoner er representert av de røde og gule prikkene på kartet.

Hold musepekeren over prikken for å se navnet på stasjonen.

Klikk så for å se værobservasjoner og -varsler.

For å forandre kartet kan du klikke på den grønne knappen med svart kryss for å zoome inn, på den grønne knappen med strek for å zoome ut, eller på de grønne pilene for å se tilstøtende kart.


METAR-TAF: